Time;durP1;ratioP1;P1;durP2;ratioP2;P2;SDS_P1;SDS_P2;PMS_P1;PMS_P2;Temp;Humidity;BMP_temperature;BMP_pressure;BME280_temperature;BME280_humidity;BME280_pressure;Samples;Min_cycle;Max_cycle;Signal;HPM_P1;HPM_P2
2023/01/31 00:01:29;;;;;;;21.90;4.35;;;3.80;99.90;;;;;;5071027;28;20177;-64
2023/01/31 00:04:03;;;;;;;31.05;4.13;;;3.70;99.90;;;;;;5073815;28;20575;-65
2023/01/31 00:06:30;;;;;;;22.08;4.00;;;3.70;99.90;;;;;;5054433;28;20642;-65
2023/01/31 00:08:57;;;;;;;25.08;3.50;;;3.60;99.90;;;;;;5065640;28;20055;-64
2023/01/31 00:11:25;;;;;;;27.52;4.05;;;3.60;99.90;;;;;;5041905;28;20044;-64
2023/01/31 00:13:51;;;;;;;28.10;3.97;;;3.50;99.90;;;;;;5073143;28;20044;-64
2023/01/31 00:16:19;;;;;;;25.23;3.90;;;3.50;99.90;;;;;;5054527;28;20051;-65
2023/01/31 00:18:45;;;;;;;23.13;3.60;;;3.50;99.90;;;;;;5082745;28;20044;-64
2023/01/31 00:21:20;;;;;;;28.33;3.92;;;3.50;99.90;;;;;;5057447;28;20067;-65
2023/01/31 00:23:47;;;;;;;27.30;3.75;;;3.50;99.90;;;;;;5075202;28;20505;-64
2023/01/31 00:26:22;;;;;;;24.52;4.05;;;3.50;99.90;;;;;;5089728;28;20051;-64
2023/01/31 00:28:49;;;;;;;26.77;4.07;;;3.50;99.90;;;;;;5076650;28;20410;-64
2023/01/31 00:31:16;;;;;;;35.88;5.03;;;3.40;99.90;;;;;;5073968;28;20043;-64
2023/01/31 00:33:44;;;;;;;32.28;3.92;;;3.40;99.90;;;;;;5076381;28;20493;-64
2023/01/31 00:36:13;;;;;;;31.48;4.35;;;3.40;99.90;;;;;;5077446;28;20052;-64
2023/01/31 00:38:40;;;;;;;21.00;3.42;;;3.40;99.90;;;;;;5073834;28;20047;-64
2023/01/31 00:41:07;;;;;;;20.67;4.10;;;3.40;99.90;;;;;;5072131;28;20047;-64
2023/01/31 00:43:33;;;;;;;27.08;3.90;;;3.30;99.90;;;;;;5095995;28;20084;-64
2023/01/31 00:46:00;;;;;;;24.85;3.80;;;3.40;99.90;;;;;;5059907;28;20055;-64
2023/01/31 00:48:26;;;;;;;20.48;3.90;;;3.30;99.90;;;;;;5061430;28;20047;-64
2023/01/31 00:50:52;;;;;;;32.22;4.20;;;3.30;99.90;;;;;;5064940;28;20079;-65
2023/01/31 00:53:22;;;;;;;22.45;3.58;;;3.30;99.90;;;;;;5073394;28;20032;-64
2023/01/31 00:56:01;;;;;;;25.80;3.63;;;3.30;99.90;;;;;;5058409;28;20047;-64
2023/01/31 00:58:27;;;;;;;27.38;3.25;;;3.20;99.90;;;;;;5071227;28;20043;-64
2023/01/31 01:00:53;;;;;;;21.98;3.13;;;3.20;99.90;;;;;;5053170;28;20040;-65
2023/01/31 01:03:19;;;;;;;28.45;4.00;;;3.20;99.90;;;;;;5078027;28;20192;-64
2023/01/31 01:05:44;;;;;;;29.17;4.05;;;3.20;99.90;;;;;;5069711;28;20051;-65
2023/01/31 01:08:10;;;;;;;25.27;3.65;;;3.20;99.90;;;;;;5066199;28;20043;-64
2023/01/31 01:10:36;;;;;;;26.85;4.28;;;3.10;99.90;;;;;;5058728;28;20530;-65
2023/01/31 01:13:04;;;;;;;23.05;3.88;;;3.20;99.90;;;;;;5069979;28;20112;-65
2023/01/31 01:15:30;;;;;;;30.33;3.50;;;3.20;99.90;;;;;;5065730;28;20044;-65
2023/01/31 01:17:56;;;;;;;29.60;4.32;;;3.20;99.90;;;;;;5067478;28;20077;-64
2023/01/31 01:20:22;;;;;;;21.70;3.53;;;3.20;99.90;;;;;;5067963;28;20048;-64
2023/01/31 01:22:48;;;;;;;22.83;3.25;;;3.10;99.90;;;;;;5071314;28;20127;-64
2023/01/31 01:25:14;;;;;;;22.52;3.80;;;3.10;99.90;;;;;;5068561;28;20395;-65
2023/01/31 01:27:40;;;;;;;21.50;3.70;;;3.10;99.90;;;;;;5087120;28;20039;-64
2023/01/31 01:30:06;;;;;;;24.48;3.88;;;3.10;99.90;;;;;;5066567;28;20166;-64
2023/01/31 01:32:32;;;;;;;23.63;4.05;;;3.00;99.90;;;;;;5080617;28;20104;-64
2023/01/31 01:34:58;;;;;;;20.40;3.50;;;3.00;99.90;;;;;;5054264;28;20419;-65
2023/01/31 01:37:24;;;;;;;21.65;3.33;;;2.90;99.90;;;;;;5074303;28;20040;-65
2023/01/31 01:39:51;;;;;;;19.10;3.05;;;2.90;99.90;;;;;;5070308;28;20136;-65
2023/01/31 01:42:20;;;;;;;28.58;3.58;;;2.90;99.90;;;;;;5074475;28;20055;-64
2023/01/31 01:44:51;;;;;;;37.80;4.22;;;2.90;99.90;;;;;;5070920;28;20048;-64
2023/01/31 01:47:26;;;;;;;31.13;4.28;;;2.80;99.90;;;;;;5052519;28;20059;-64
2023/01/31 01:50:13;;;;;;;30.27;3.45;;;2.80;99.90;;;;;;5068939;28;20058;-64
2023/01/31 01:53:03;;;;;;;18.48;3.58;;;2.80;99.90;;;;;;5070450;28;20055;-64
2023/01/31 01:55:36;;;;;;;25.80;3.50;;;2.80;99.90;;;;;;5047767;28;20071;-64
2023/01/31 01:58:21;;;;;;;26.98;3.50;;;2.90;99.90;;;;;;5059518;28;20522;-64
2023/01/31 02:00:49;;;;;;;19.48;3.03;;;2.90;99.90;;;;;;5065975;28;20128;-64
2023/01/31 02:03:15;;;;;;;25.02;3.80;;;2.90;99.90;;;;;;5070530;28;20135;-64
2023/01/31 02:05:43;;;;;;;29.52;3.72;;;3.00;99.90;;;;;;5081494;27;20048;-64
2023/01/31 02:08:09;;;;;;;21.52;4.22;;;3.00;99.90;;;;;;5071256;28;20031;-64
2023/01/31 02:10:38;;;;;;;25.80;3.30;;;3.10;99.90;;;;;;5069779;28;20079;-64
2023/01/31 02:13:04;;;;;;;20.25;3.53;;;3.00;99.90;;;;;;5084635;28;20126;-64
2023/01/31 02:15:30;;;;;;;25.45;3.42;;;3.00;99.90;;;;;;5085394;28;20036;-64
2023/01/31 02:17:56;;;;;;;26.83;3.90;;;3.00;99.90;;;;;;5070505;28;20048;-64
2023/01/31 02:20:47;;;;;;;22.40;3.40;;;3.10;99.90;;;;;;5070239;28;20055;-64
2023/01/31 02:23:19;;;;;;;24.25;3.50;;;3.10;99.90;;;;;;5072323;28;20580;-64
2023/01/31 02:25:50;;;;;;;28.45;3.38;;;3.10;99.90;;;;;;5064679;28;20109;-64
2023/01/31 02:28:53;;;;;;;23.38;3.17;;;3.10;99.90;;;;;;5067639;28;20108;-64
2023/01/31 02:31:34;;;;;;;27.70;3.45;;;3.20;99.90;;;;;;5058642;28;21053;-64
2023/01/31 02:34:09;;;;;;;24.75;3.63;;;3.20;99.90;;;;;;5068458;28;20055;-64
2023/01/31 02:36:41;;;;;;;23.88;3.40;;;3.20;99.90;;;;;;5073823;28;20066;-64
2023/01/31 02:39:16;;;;;;;28.13;4.22;;;3.30;99.90;;;;;;5068846;28;20047;-64
2023/01/31 02:41:56;;;;;;;24.02;3.33;;;3.30;99.90;;;;;;5064280;28;20071;-64
2023/01/31 02:44:59;;;;;;;30.00;3.60;;;3.30;99.90;;;;;;5069517;28;20051;-64
2023/01/31 02:47:49;;;;;;;25.38;3.35;;;3.40;99.90;;;;;;5024637;28;20047;-65
2023/01/31 02:50:32;;;;;;;18.95;3.35;;;3.30;99.90;;;;;;5070951;28;20118;-64
2023/01/31 02:53:02;;;;;;;24.70;3.15;;;3.40;99.90;;;;;;5068002;28;20051;-64
2023/01/31 02:58:32;;;;;;;27.52;3.42;;;3.40;99.90;;;;;;5064053;28;20494;-64
2023/01/31 03:01:02;;;;;;;20.60;3.55;;;3.40;99.90;;;;;;5066912;28;20048;-64
2023/01/31 03:03:38;;;;;;;26.02;3.25;;;3.50;99.90;;;;;;5085183;28;20130;-64
2023/01/31 03:06:21;;;;;;;30.33;2.95;;;3.50;99.90;;;;;;5070765;28;20055;-64
2023/01/31 03:09:01;;;;;;;22.92;3.55;;;3.40;99.90;;;;;;5067417;28;20043;-64
2023/01/31 03:11:39;;;;;;;23.10;3.85;;;3.50;99.90;;;;;;5070253;28;20058;-64
2023/01/31 03:14:22;;;;;;;23.38;3.13;;;3.50;99.90;;;;;;5092056;28;20540;-64
2023/01/31 03:20:01;;;;;;;22.45;3.05;;;3.50;99.90;;;;;;5073493;28;20054;-64
2023/01/31 03:22:34;;;;;;;22.20;3.35;;;3.50;99.90;;;;;;5053728;28;20565;-64
2023/01/31 03:25:00;;;;;;;20.45;3.13;;;3.60;99.90;;;;;;5072399;28;20413;-64
2023/01/31 03:27:28;;;;;;;17.17;2.97;;;3.70;99.90;;;;;;5046126;28;20048;-64
2023/01/31 03:30:02;;;;;;;22.52;3.22;;;3.60;99.90;;;;;;5065687;28;21960;-64
2023/01/31 03:32:35;;;;;;;24.73;3.58;;;3.60;99.90;;;;;;5068189;28;20435;-64
2023/01/31 03:35:01;;;;;;;26.27;3.30;;;3.70;99.90;;;;;;5063600;28;20086;-64
2023/01/31 03:37:43;;;;;;;25.15;3.40;;;3.70;99.90;;;;;;5085784;28;20184;-64
2023/01/31 03:40:15;;;;;;;22.75;3.65;;;3.70;99.90;;;;;;5068224;28;20670;-64
2023/01/31 03:43:04;;;;;;;16.20;3.45;;;3.70;99.90;;;;;;5065120;27;20063;-64
2023/01/31 03:45:44;;;;;;;21.48;2.72;;;3.70;99.90;;;;;;5072318;28;20517;-64
2023/01/31 03:48:16;;;;;;;14.45;3.47;;;3.80;99.90;;;;;;5057923;27;20075;-64
2023/01/31 03:50:56;;;;;;;23.35;3.53;;;3.80;99.90;;;;;;5072530;28;20047;-64
2023/01/31 03:53:28;;;;;;;24.45;3.17;;;3.80;99.90;;;;;;5085869;28;20094;-64
2023/01/31 03:56:03;;;;;;;21.65;3.63;;;3.80;99.90;;;;;;5056360;28;20061;-64
2023/01/31 03:58:33;;;;;;;19.95;3.58;;;3.80;99.90;;;;;;5052601;28;20058;-64
2023/01/31 04:01:01;;;;;;;28.50;3.88;;;3.90;99.90;;;;;;5048422;28;20111;-64
2023/01/31 04:03:28;;;;;;;27.00;4.15;;;3.90;99.90;;;;;;5047825;28;20169;-64
2023/01/31 04:05:55;;;;;;;18.00;3.40;;;3.90;99.90;;;;;;5050282;28;20044;-64
2023/01/31 04:08:21;;;;;;;20.77;4.65;;;4.00;99.90;;;;;;5055369;28;20053;-64
2023/01/31 04:10:47;;;;;;;23.45;3.75;;;4.00;99.90;;;;;;5050471;28;20037;-64
2023/01/31 04:13:13;;;;;;;26.40;3.65;;;4.10;99.90;;;;;;5047117;28;20578;-64
2023/01/31 04:15:38;;;;;;;18.20;3.33;;;4.10;99.90;;;;;;5041821;28;20049;-64
2023/01/31 04:18:04;;;;;;;24.23;4.65;;;4.10;99.90;;;;;;5047166;28;20055;-64
2023/01/31 04:20:30;;;;;;;27.13;4.47;;;4.20;99.90;;;;;;5049727;28;20051;-64
2023/01/31 04:22:58;;;;;;;33.40;4.43;;;4.20;99.90;;;;;;5036590;28;20041;-64
2023/01/31 04:25:24;;;;;;;35.72;4.28;;;4.20;99.90;;;;;;5044803;28;20048;-64
2023/01/31 04:27:50;;;;;;;25.20;4.30;;;4.30;99.90;;;;;;5046900;28;20106;-64
2023/01/31 04:30:16;;;;;;;26.98;4.30;;;4.30;99.90;;;;;;5047772;28;20057;-64
2023/01/31 04:32:42;;;;;;;30.02;4.80;;;4.30;99.90;;;;;;5048240;28;21080;-64
2023/01/31 04:35:08;;;;;;;23.50;4.40;;;4.30;99.90;;;;;;5051244;28;20049;-64
2023/01/31 04:37:34;;;;;;;26.33;4.07;;;4.40;99.90;;;;;;5044145;28;20048;-64
2023/01/31 04:40:00;;;;;;;32.35;5.38;;;4.40;99.90;;;;;;5037729;28;20048;-64
2023/01/31 04:42:26;;;;;;;21.35;4.47;;;4.50;99.90;;;;;;5043559;28;20056;-64
2023/01/31 04:44:52;;;;;;;30.83;4.82;;;4.50;99.90;;;;;;5052410;28;20410;-64
2023/01/31 04:47:18;;;;;;;28.27;5.03;;;4.60;99.90;;;;;;5051074;28;20118;-64
2023/01/31 04:49:44;;;;;;;33.13;5.20;;;4.60;99.90;;;;;;5049326;28;20139;-64
2023/01/31 04:52:10;;;;;;;29.88;5.10;;;4.60;99.90;;;;;;5049535;28;20102;-64
2023/01/31 04:54:36;;;;;;;32.97;5.22;;;4.60;99.90;;;;;;5045550;28;20068;-64
2023/01/31 04:57:02;;;;;;;31.23;5.05;;;4.60;99.90;;;;;;5090055;28;20131;-64
2023/01/31 04:59:28;;;;;;;34.03;5.30;;;4.70;99.90;;;;;;5060339;28;20078;-64
2023/01/31 05:01:54;;;;;;;35.92;5.90;;;4.70;99.90;;;;;;5041235;28;20048;-64
2023/01/31 05:04:21;;;;;;;31.35;5.95;;;4.70;99.90;;;;;;5062838;28;20047;-64
2023/01/31 05:06:47;;;;;;;33.13;5.22;;;4.70;99.90;;;;;;5069474;28;20067;-64
2023/01/31 05:09:13;;;;;;;38.42;5.95;;;4.80;99.90;;;;;;5075685;28;20074;-64
2023/01/31 05:11:39;;;;;;;31.75;5.43;;;4.80;99.90;;;;;;5070765;28;20044;-64
2023/01/31 05:14:05;;;;;;;39.58;5.45;;;4.80;99.90;;;;;;5063851;28;20051;-64
2023/01/31 05:16:30;;;;;;;31.35;4.82;;;4.90;99.90;;;;;;5066497;28;20116;-64
2023/01/31 05:18:56;;;;;;;43.67;6.50;;;4.90;99.90;;;;;;5068076;28;20393;-64
2023/01/31 05:21:22;;;;;;;36.08;5.55;;;4.90;99.90;;;;;;5068521;28;20555;-64
2023/01/31 05:23:48;;;;;;;33.00;5.25;;;4.90;99.90;;;;;;5089243;28;20044;-64
2023/01/31 05:26:14;;;;;;;31.58;5.00;;;4.90;99.90;;;;;;5090630;28;20043;-64
2023/01/31 05:28:40;;;;;;;29.73;5.43;;;5.00;99.90;;;;;;5082767;28;20048;-64
2023/01/31 05:31:07;;;;;;;33.92;5.35;;;5.00;99.90;;;;;;5068416;28;20524;-64
2023/01/31 05:33:33;;;;;;;31.48;6.25;;;5.00;99.90;;;;;;5065523;28;20035;-64
2023/01/31 05:36:00;;;;;;;35.28;5.50;;;5.00;99.90;;;;;;5065635;28;20077;-64
2023/01/31 05:38:26;;;;;;;32.28;5.57;;;5.00;99.90;;;;;;5073370;28;20118;-64
2023/01/31 05:40:52;;;;;;;40.22;5.40;;;5.10;99.90;;;;;;5089854;28;20043;-64
2023/01/31 05:43:18;;;;;;;33.78;5.40;;;5.10;99.90;;;;;;5071555;28;20456;-64
2023/01/31 05:45:44;;;;;;;34.25;5.80;;;5.10;99.90;;;;;;5059254;28;20518;-64
2023/01/31 05:48:10;;;;;;;31.85;5.35;;;5.10;99.90;;;;;;5072459;28;20719;-64
2023/01/31 05:50:36;;;;;;;31.50;5.47;;;5.10;99.90;;;;;;5071597;28;20120;-64
2023/01/31 05:53:04;;;;;;;25.17;4.90;;;5.10;99.90;;;;;;5068325;28;20093;-64
2023/01/31 05:55:30;;;;;;;37.90;5.60;;;5.10;99.90;;;;;;5067884;28;20055;-64
2023/01/31 05:57:56;;;;;;;28.27;4.57;;;5.10;99.90;;;;;;5067382;28;20048;-64
2023/01/31 06:00:23;;;;;;;27.35;4.90;;;5.10;99.90;;;;;;5073895;28;20044;-64
2023/01/31 06:02:49;;;;;;;28.90;6.03;;;5.10;99.90;;;;;;5045108;28;20157;-64
2023/01/31 06:05:15;;;;;;;29.73;5.40;;;5.10;99.90;;;;;;5073746;28;20044;-64
2023/01/31 06:07:41;;;;;;;26.63;5.15;;;5.10;99.90;;;;;;5070204;28;20100;-64
2023/01/31 06:10:09;;;;;;;29.55;5.05;;;5.20;99.90;;;;;;5086426;28;20055;-64
2023/01/31 06:12:35;;;;;;;31.40;5.82;;;5.20;99.90;;;;;;5068617;28;20051;-64
2023/01/31 06:15:02;;;;;;;35.88;5.78;;;5.20;99.90;;;;;;5061369;28;20132;-64
2023/01/31 06:17:28;;;;;;;32.50;5.90;;;5.20;99.90;;;;;;5059856;28;20659;-64
2023/01/31 06:19:53;;;;;;;30.70;5.32;;;5.20;99.90;;;;;;5072156;28;20114;-64
2023/01/31 06:22:19;;;;;;;44.17;5.93;;;5.20;99.90;;;;;;5058045;28;20070;-64
2023/01/31 06:24:45;;;;;;;34.63;5.80;;;5.20;99.90;;;;;;5068162;28;20054;-64
2023/01/31 06:27:11;;;;;;;28.85;5.93;;;5.20;99.90;;;;;;5067911;28;20090;-64
2023/01/31 06:29:37;;;;;;;27.73;6.03;;;5.20;99.90;;;;;;5071827;28;20170;-64
2023/01/31 06:32:03;;;;;;;32.97;5.88;;;5.20;99.90;;;;;;5073202;28;20048;-64
2023/01/31 06:34:29;;;;;;;33.50;5.50;;;5.20;99.90;;;;;;5068351;28;20074;-65
2023/01/31 06:36:55;;;;;;;27.08;5.18;;;5.20;99.90;;;;;;5068656;28;20130;-64
2023/01/31 06:39:21;;;;;;;29.02;6.15;;;5.20;99.90;;;;;;5058199;28;20086;-65
2023/01/31 06:41:47;;;;;;;28.90;5.53;;;5.20;99.90;;;;;;5034813;28;20059;-64
2023/01/31 06:44:12;;;;;;;36.55;6.00;;;5.20;99.90;;;;;;5047667;28;20044;-64
2023/01/31 06:46:38;;;;;;;31.77;6.30;;;5.20;99.90;;;;;;5073268;28;20062;-64
2023/01/31 06:49:04;;;;;;;29.98;4.80;;;5.20;99.90;;;;;;5086770;28;20040;-64
2023/01/31 06:51:30;;;;;;;34.10;5.07;;;5.20;99.90;;;;;;5069881;28;20100;-64
2023/01/31 06:53:56;;;;;;;24.60;5.40;;;5.30;99.90;;;;;;5044771;28;20081;-64
2023/01/31 06:56:22;;;;;;;33.60;5.30;;;5.30;99.90;;;;;;5053518;28;20137;-64
2023/01/31 06:58:48;;;;;;;29.58;5.40;;;5.30;99.90;;;;;;5016252;28;20105;-64
2023/01/31 07:01:14;;;;;;;36.83;5.57;;;5.30;99.90;;;;;;5046588;28;20511;-64
2023/01/31 07:03:40;;;;;;;32.38;5.22;;;5.30;99.90;;;;;;5047131;28;20068;-63
2023/01/31 07:06:07;;;;;;;32.88;5.90;;;5.30;99.90;;;;;;5051771;28;20051;-63
2023/01/31 07:08:33;;;;;;;36.33;5.65;;;5.30;99.90;;;;;;5037306;28;20051;-64
2023/01/31 07:11:02;;;;;;;31.95;4.93;;;5.30;99.90;;;;;;5049053;28;20144;-63
2023/01/31 07:13:29;;;;;;;33.45;5.32;;;5.30;99.90;;;;;;5033515;28;20165;-63
2023/01/31 07:15:55;;;;;;;31.42;5.75;;;5.30;99.90;;;;;;5050017;28;20044;-63
2023/01/31 07:18:21;;;;;;;28.65;5.72;;;5.40;99.90;;;;;;5052830;28;20101;-64
2023/01/31 07:20:47;;;;;;;26.60;4.75;;;5.40;99.90;;;;;;5054320;28;20654;-63
2023/01/31 07:23:13;;;;;;;30.75;4.75;;;5.40;99.90;;;;;;5054070;28;20137;-63
2023/01/31 07:25:39;;;;;;;32.53;4.88;;;5.40;99.90;;;;;;5049944;28;20099;-64
2023/01/31 07:28:04;;;;;;;32.78;4.43;;;5.40;99.90;;;;;;5053232;28;20044;-63
2023/01/31 07:30:30;;;;;;;26.25;4.65;;;5.40;99.90;;;;;;5037284;28;20836;-63
2023/01/31 07:32:56;;;;;;;21.02;4.10;;;5.40;99.90;;;;;;5050077;28;20075;-63
2023/01/31 07:35:22;;;;;;;26.83;4.30;;;5.50;99.90;;;;;;5040415;28;20044;-63
2023/01/31 07:37:51;;;;;;;21.85;4.35;;;5.50;99.90;;;;;;5052084;28;20468;-63
2023/01/31 07:40:17;;;;;;;27.17;4.32;;;5.50;99.90;;;;;;5050709;28;20474;-63
2023/01/31 07:42:43;;;;;;;26.52;4.70;;;5.50;99.90;;;;;;5040764;28;20056;-63
2023/01/31 07:45:14;;;;;;;27.65;5.18;;;5.50;99.90;;;;;;5051762;28;20062;-64
2023/01/31 07:47:41;;;;;;;27.33;5.40;;;5.50;99.90;;;;;;5056121;28;20045;-64
2023/01/31 07:50:08;;;;;;;23.92;4.00;;;5.50;99.90;;;;;;5036946;28;20041;-64
2023/01/31 07:52:34;;;;;;;32.13;4.80;;;5.60;99.90;;;;;;5054488;28;20048;-63
2023/01/31 07:54:59;;;;;;;22.52;4.03;;;5.50;99.90;;;;;;5055898;28;20060;-63
2023/01/31 07:57:25;;;;;;;26.33;4.40;;;5.60;99.90;;;;;;5041767;28;20505;-64
2023/01/31 07:59:51;;;;;;;22.02;4.40;;;5.60;99.90;;;;;;5053010;28;20093;-63
2023/01/31 08:05:02;;;;;;;22.00;3.75;;;5.60;99.90;;;;;;5038416;28;20049;-63
2023/01/31 08:07:28;;;;;;;22.83;3.78;;;5.60;99.90;;;;;;5050635;28;20045;-63
2023/01/31 08:09:55;;;;;;;24.15;3.92;;;5.60;99.90;;;;;;5050346;28;20037;-63
2023/01/31 08:12:21;;;;;;;17.40;3.67;;;5.60;99.90;;;;;;5058622;28;20518;-64
2023/01/31 08:14:47;;;;;;;27.50;3.95;;;5.60;99.90;;;;;;5047750;28;20115;-63
2023/01/31 08:17:12;;;;;;;22.35;3.95;;;5.70;99.90;;;;;;5050599;28;20049;-64
2023/01/31 08:19:38;;;;;;;21.58;3.50;;;5.70;99.90;;;;;;5058256;28;21110;-63
2023/01/31 08:22:05;;;;;;;21.58;3.70;;;5.80;99.90;;;;;;5054421;28;20037;-63
2023/01/31 08:24:32;;;;;;;23.63;4.07;;;5.80;99.90;;;;;;5031973;28;20040;-63
2023/01/31 08:26:58;;;;;;;18.17;4.35;;;5.70;99.90;;;;;;5055857;28;20056;-63
2023/01/31 08:29:25;;;;;;;17.13;3.35;;;5.80;99.90;;;;;;5058971;28;20045;-63
2023/01/31 08:31:52;;;;;;;20.02;4.43;;;5.80;99.90;;;;;;5053657;28;20048;-63
2023/01/31 08:34:18;;;;;;;21.88;4.13;;;5.90;99.90;;;;;;5067090;28;20052;-63
2023/01/31 08:36:45;;;;;;;20.42;3.65;;;5.80;99.90;;;;;;5048827;28;20070;-63
2023/01/31 08:39:11;;;;;;;15.25;3.58;;;5.80;99.90;;;;;;5011806;28;20041;-64
2023/01/31 08:41:38;;;;;;;26.42;4.05;;;5.90;99.90;;;;;;5046059;28;20049;-64
2023/01/31 08:44:07;;;;;;;18.88;3.67;;;5.90;99.90;;;;;;5043658;28;20048;-63
2023/01/31 08:46:35;;;;;;;24.13;4.13;;;5.90;99.90;;;;;;5056351;28;20119;-64
2023/01/31 08:49:03;;;;;;;21.10;4.47;;;5.90;99.90;;;;;;5054017;28;20040;-63
2023/01/31 08:51:29;;;;;;;24.10;3.55;;;6.00;99.90;;;;;;5049598;28;20144;-63
2023/01/31 08:53:55;;;;;;;20.90;4.00;;;6.00;99.90;;;;;;5050925;28;20088;-63
2023/01/31 08:56:24;;;;;;;26.98;4.45;;;6.10;99.90;;;;;;5051077;28;20869;-63
2023/01/31 08:58:52;;;;;;;23.60;4.38;;;6.10;99.90;;;;;;5051186;28;20102;-63
2023/01/31 09:01:20;;;;;;;21.83;3.97;;;6.10;99.90;;;;;;5056638;28;20119;-64
2023/01/31 09:03:46;;;;;;;24.70;3.80;;;6.10;99.90;;;;;;5053124;28;20231;-64
2023/01/31 09:06:16;;;;;;;30.15;4.47;;;6.20;99.90;;;;;;5052104;28;20518;-64
2023/01/31 09:08:42;;;;;;;30.77;4.30;;;6.20;99.90;;;;;;5044331;28;20134;-63
2023/01/31 09:11:08;;;;;;;26.83;4.15;;;6.20;99.90;;;;;;5027682;28;20471;-64
2023/01/31 09:13:35;;;;;;;19.27;4.05;;;6.20;99.90;;;;;;5030791;28;20049;-63
2023/01/31 09:16:08;;;;;;;25.23;3.63;;;6.30;99.90;;;;;;5052691;28;20087;-64
2023/01/31 09:18:37;;;;;;;24.33;4.35;;;6.30;99.90;;;;;;5048394;28;20052;-63
2023/01/31 09:21:04;;;;;;;28.30;4.30;;;6.30;99.90;;;;;;5051062;28;20422;-63
2023/01/31 09:23:30;;;;;;;23.92;4.07;;;6.30;99.90;;;;;;5041840;28;20055;-63
2023/01/31 09:25:56;;;;;;;22.73;3.88;;;6.30;99.90;;;;;;5045420;28;20049;-63
2023/01/31 09:28:23;;;;;;;24.90;4.47;;;6.20;99.90;;;;;;5040975;28;20040;-63
2023/01/31 09:30:52;;;;;;;25.58;4.03;;;6.30;99.90;;;;;;5031736;28;20044;-64
2023/01/31 09:33:19;;;;;;;31.33;4.05;;;6.30;99.90;;;;;;5044295;28;20056;-63
2023/01/31 09:35:59;;;;;;;28.90;4.55;;;6.30;99.90;;;;;;5056452;28;20101;-63
2023/01/31 09:38:25;;;;;;;23.48;3.88;;;6.30;99.90;;;;;;5061083;28;20073;-64
2023/01/31 09:40:52;;;;;;;24.52;4.13;;;6.30;99.90;;;;;;5043706;28;20059;-64
2023/01/31 09:43:21;;;;;;;26.27;3.92;;;6.30;99.90;;;;;;5054524;28;20123;-63
2023/01/31 09:45:49;;;;;;;25.80;4.47;;;6.30;99.90;;;;;;5052408;28;20234;-63
2023/01/31 09:48:23;;;;;;;23.35;3.75;;;6.30;99.90;;;;;;5051024;28;20903;-64
2023/01/31 09:50:54;;;;;;;29.27;4.80;;;6.30;99.90;;;;;;5054451;28;20135;-63
2023/01/31 09:53:23;;;;;;;25.50;4.23;;;6.30;99.90;;;;;;5039132;28;20163;-63
2023/01/31 09:56:24;;;;;;;29.55;4.03;;;6.30;99.90;;;;;;5052905;28;20404;-63
2023/01/31 09:59:09;;;;;;;24.65;3.95;;;6.30;99.90;;;;;;5028388;28;20086;-63
2023/01/31 10:01:50;;;;;;;23.45;4.53;;;6.30;99.90;;;;;;5058233;28;20040;-63
2023/01/31 10:04:25;;;;;;;25.75;4.28;;;6.40;99.90;;;;;;5052270;28;20040;-63
2023/01/31 10:06:58;;;;;;;21.45;3.92;;;6.40;99.90;;;;;;5058861;28;20539;-63
2023/01/31 10:09:35;;;;;;;29.98;4.53;;;6.40;99.90;;;;;;5057870;28;20044;-63
2023/01/31 10:12:21;;;;;;;27.42;4.38;;;6.40;99.90;;;;;;5056473;28;20064;-63
2023/01/31 10:14:50;;;;;;;30.85;4.50;;;6.50;99.90;;;;;;5048422;28;20049;-63
2023/01/31 10:17:38;;;;;;;27.60;4.63;;;6.40;99.90;;;;;;5049588;28;20083;-64
2023/01/31 10:20:10;;;;;;;27.75;4.63;;;6.50;99.90;;;;;;5042445;28;20131;-64
2023/01/31 10:22:45;;;;;;;33.13;4.05;;;6.50;99.90;;;;;;5034050;28;20048;-63
2023/01/31 10:25:47;;;;;;;21.85;4.38;;;6.50;99.90;;;;;;5034546;28;20048;-63
2023/01/31 10:28:27;;;;;;;22.88;4.03;;;6.50;99.90;;;;;;5053402;28;20052;-63
2023/01/31 10:31:10;;;;;;;28.00;5.28;;;6.50;99.90;;;;;;5048229;28;20094;-63
2023/01/31 10:33:57;;;;;;;;;;;6.50;99.90;;;;;;5046757;28;20036;-63
2023/01/31 10:36:38;;;;;;;31.90;4.57;;;6.50;99.90;;;;;;5051028;28;20011;-63
2023/01/31 10:39:28;;;;;;;22.20;4.30;;;6.50;99.90;;;;;;5050784;28;20041;-63
2023/01/31 10:42:06;;;;;;;26.50;4.85;;;6.50;99.90;;;;;;5052950;28;20040;-63
2023/01/31 10:44:57;;;;;;;19.25;3.90;;;6.50;99.90;;;;;;5049076;28;20053;-63
2023/01/31 10:47:34;;;;;;;21.70;4.03;;;6.60;99.90;;;;;;5054161;28;20585;-63
2023/01/31 10:50:04;;;;;;;21.58;4.00;;;6.60;99.90;;;;;;5048937;28;20059;-63
2023/01/31 10:52:55;;;;;;;22.63;4.03;;;6.60;99.90;;;;;;5055189;28;20049;-63
2023/01/31 10:55:29;;;;;;;30.25;4.50;;;6.60;99.90;;;;;;5065398;28;20067;-63
2023/01/31 10:57:57;;;;;;;17.65;3.85;;;6.60;99.90;;;;;;5080538;28;20477;-62
2023/01/31 11:00:28;;;;;;;24.27;4.70;;;6.60;99.90;;;;;;5089709;28;20127;-63
2023/01/31 11:02:54;;;;;;;26.13;4.82;;;6.70;99.90;;;;;;5069754;28;20059;-62
2023/01/31 11:05:23;;;;;;;23.48;4.53;;;6.70;99.90;;;;;;5075282;28;20417;-62
2023/01/31 11:07:49;;;;;;;30.45;5.63;;;6.70;99.90;;;;;;5083233;28;21136;-62
2023/01/31 11:10:31;;;;;;;23.08;4.40;;;6.70;99.90;;;;;;5094311;28;20043;-63
2023/01/31 11:13:08;;;;;;;27.48;4.63;;;6.70;99.90;;;;;;5072599;28;20437;-63
2023/01/31 11:15:38;;;;;;;29.48;4.63;;;6.70;99.90;;;;;;5088459;28;20040;-63
2023/01/31 11:18:04;;;;;;;32.95;4.70;;;6.80;99.90;;;;;;5071441;28;20555;-63
2023/01/31 11:20:34;;;;;;;33.80;4.72;;;6.70;99.90;;;;;;5088277;28;20042;-63
2023/01/31 11:23:02;;;;;;;27.65;4.57;;;6.80;99.90;;;;;;5093760;28;20083;-62
2023/01/31 11:25:30;;;;;;;30.08;4.60;;;6.80;99.90;;;;;;5090585;28;20140;-63
2023/01/31 11:27:59;;;;;;;28.63;4.68;;;6.80;99.90;;;;;;5097958;28;20050;-63
2023/01/31 11:30:31;;;;;;;25.40;4.53;;;6.80;99.90;;;;;;5085680;28;20482;-63
2023/01/31 11:32:58;;;;;;;26.52;4.65;;;6.80;99.90;;;;;;5102704;28;20044;-63
2023/01/31 11:35:27;;;;;;;31.55;4.43;;;6.90;99.90;;;;;;5075521;28;20074;-62
2023/01/31 11:37:56;;;;;;;28.85;4.35;;;6.90;99.90;;;;;;5079741;28;20512;-63
2023/01/31 11:40:26;;;;;;;25.83;4.75;;;6.90;99.90;;;;;;5074697;28;20549;-63
2023/01/31 11:43:00;;;;;;;26.65;4.20;;;6.90;99.90;;;;;;5080180;28;20060;-62
2023/01/31 11:45:33;;;;;;;31.38;5.35;;;6.90;99.90;;;;;;5075870;28;20051;-63
2023/01/31 11:48:11;;;;;;;28.27;4.80;;;6.90;99.90;;;;;;5102233;28;20091;-63
2023/01/31 11:50:58;;;;;;;37.35;5.07;;;6.90;99.90;;;;;;5097907;28;20075;-63
2023/01/31 11:53:46;;;;;;;23.20;3.95;;;7.00;99.90;;;;;;5101051;28;20170;-63
2023/01/31 11:56:27;;;;;;;24.83;4.88;;;7.00;99.90;;;;;;5091753;28;20048;-63
2023/01/31 11:59:01;;;;;;;32.25;4.72;;;7.00;99.90;;;;;;5096921;27;20137;-63
2023/01/31 12:01:27;;;;;;;33.33;4.43;;;7.00;99.90;;;;;;5095302;28;20478;-63
2023/01/31 12:04:05;;;;;;;29.10;4.88;;;7.10;99.90;;;;;;5075835;28;20166;-63
2023/01/31 12:06:39;;;;;;;27.85;4.50;;;7.20;99.90;;;;;;5067803;28;20039;-63
2023/01/31 12:09:27;;;;;;;26.75;4.35;;;7.20;99.90;;;;;;5098960;28;20052;-63
2023/01/31 12:11:55;;;;;;;22.75;4.40;;;7.20;99.90;;;;;;5076908;28;20517;-63
2023/01/31 12:14:23;;;;;;;29.33;4.80;;;7.30;99.90;;;;;;5101316;27;20044;-63
2023/01/31 12:16:52;;;;;;;25.65;4.53;;;7.30;99.90;;;;;;5063103;28;20052;-63
2023/01/31 12:19:31;;;;;;;24.80;4.70;;;7.40;99.90;;;;;;5102060;28;20432;-63
2023/01/31 12:22:18;;;;;;;21.33;4.78;;;7.40;99.90;;;;;;5102460;28;20031;-63
2023/01/31 12:25:03;;;;;;;27.95;3.75;;;7.40;99.90;;;;;;5104557;28;20486;-63
2023/01/31 12:28:11;;;;;;;19.95;4.40;;;7.50;99.90;;;;;;5100237;28;20044;-63
2023/01/31 12:31:01;;;;;;;28.42;4.43;;;7.50;99.90;;;;;;5081407;28;20515;-63
2023/01/31 12:33:45;;;;;;;29.00;4.90;;;7.60;99.90;;;;;;5096368;28;20044;-62
2023/01/31 12:36:56;;;;;;;22.80;4.10;;;7.60;99.90;;;;;;5091373;28;20037;-63
2023/01/31 12:39:45;;;;;;;21.73;3.80;;;7.60;99.90;;;;;;5022828;28;20109;-63
2023/01/31 12:42:32;;;;;;;23.80;3.47;;;7.70;99.90;;;;;;5067104;28;20036;-63
2023/01/31 12:45:05;;;;;;;19.25;4.07;;;7.70;99.90;;;;;;5073269;28;20506;-63
2023/01/31 12:47:49;;;;;;;28.75;3.83;;;7.70;99.90;;;;;;5072210;28;20048;-63
2023/01/31 12:50:27;;;;;;;22.80;3.80;;;7.70;99.90;;;;;;5087516;28;20062;-63
2023/01/31 12:53:19;;;;;;;20.85;3.92;;;7.70;99.90;;;;;;5087599;28;20047;-63
2023/01/31 12:56:00;;;;;;;21.90;4.88;;;7.70;99.90;;;;;;5086505;28;20097;-63
2023/01/31 12:58:34;;;;;;;19.00;3.78;;;7.80;99.90;;;;;;5088772;28;20122;-63
2023/01/31 13:01:05;;;;;;;21.13;3.53;;;7.80;99.90;;;;;;5056640;28;20084;-62
2023/01/31 13:03:59;;;;;;;22.73;3.72;;;7.90;99.90;;;;;;5072729;28;20036;-63
2023/01/31 13:06:30;;;;;;;25.05;4.10;;;7.90;99.90;;;;;;5068019;28;20493;-63
2023/01/31 13:09:25;;;;;;;20.10;3.20;;;7.90;99.90;;;;;;5072248;28;20085;-63
2023/01/31 13:12:09;;;;;;;25.17;4.20;;;7.90;99.90;;;;;;5084668;28;20039;-63
2023/01/31 13:14:40;;;;;;;27.55;3.75;;;8.00;99.90;;;;;;5086085;28;20070;-63
2023/01/31 13:17:11;;;;;;;19.90;4.57;;;8.00;99.90;;;;;;5044478;28;20063;-63